createdAt,value
2019-04-07T00:00:55.660Z,98888.92
2019-04-07T00:03:21.833Z,98896.50
2019-04-07T00:05:48.266Z,98900.65
2019-04-07T00:08:15.104Z,98907.75
2019-04-07T00:10:41.417Z,98907.17
2019-04-07T00:13:07.758Z,98908.29
2019-04-07T00:15:34.463Z,98900.36
2019-04-07T00:18:00.797Z,98897.73
2019-04-07T00:20:27.114Z,98903.94
2019-04-07T00:22:53.400Z,98901.73
2019-04-07T00:25:19.555Z,98902.33
2019-04-07T00:27:45.756Z,98895.48
2019-04-07T00:30:13.925Z,98899.07
2019-04-07T00:32:40.116Z,98893.28
2019-04-07T00:35:06.744Z,98894.41
2019-04-07T00:37:32.923Z,98897.66
2019-04-07T00:39:59.098Z,98890.86
2019-04-07T00:42:25.939Z,98886.38
2019-04-07T00:44:52.301Z,98886.19
2019-04-07T00:47:18.619Z,98892.09
2019-04-07T00:49:45.085Z,98887.00
2019-04-07T00:52:13.189Z,98886.91
2019-04-07T00:54:39.448Z,98889.28
2019-04-07T00:57:05.779Z,98877.42
2019-04-07T00:59:32.073Z,98879.27
2019-04-07T01:01:58.349Z,98873.28
2019-04-07T01:04:24.666Z,98877.55
2019-04-07T01:06:51.635Z,98862.06
2019-04-07T01:09:17.803Z,98867.66
2019-04-07T01:11:44.257Z,98862.18
2019-04-07T01:14:10.919Z,98859.45
2019-04-07T01:16:37.468Z,98853.77
2019-04-07T01:19:03.806Z,98856.69
2019-04-07T01:21:30.333Z,98854.23
2019-04-07T01:23:56.935Z,98855.30
2019-04-07T01:26:23.882Z,98850.34
2019-04-07T01:28:50.751Z,98854.31
2019-04-07T01:31:17.662Z,98846.49
2019-04-07T01:33:44.343Z,98852.66
2019-04-07T01:36:11.240Z,98852.86
2019-04-07T01:38:37.904Z,98854.00
2019-04-07T01:41:06.307Z,98849.08
2019-04-07T01:43:40.482Z,98854.24
2019-04-07T01:46:11.442Z,98847.98
2019-04-07T01:48:39.609Z,98849.06
2019-04-07T01:51:24.630Z,98846.02
2019-04-07T01:53:56.362Z,98845.77
2019-04-07T01:56:33.746Z,98840.77
2019-04-07T01:59:10.293Z,98843.36
2019-04-07T02:01:49.547Z,98848.39
2019-04-07T02:07:24.728Z,98855.69
2019-04-07T02:10:05.271Z,98852.19
2019-04-07T02:12:50.702Z,98852.33
2019-04-07T02:15:25.191Z,98869.11
2019-04-07T02:18:02.471Z,98863.16
2019-04-07T02:20:43.391Z,98864.53
2019-04-07T02:23:28.201Z,98862.64
2019-04-07T02:26:13.571Z,98863.74
2019-04-07T02:28:57.211Z,98862.88
2019-04-07T02:31:25.528Z,98865.32
2019-04-07T02:34:10.195Z,98862.66
2019-04-07T02:36:50.034Z,98864.78
2019-04-07T02:39:18.321Z,98868.55
2019-04-07T02:41:58.782Z,98871.33
2019-04-07T02:44:27.330Z,98869.12
2019-04-07T02:46:58.838Z,98871.14
2019-04-07T02:49:35.971Z,98870.88
2019-04-07T02:52:11.100Z,98876.05
2019-04-07T02:54:48.008Z,98869.75
2019-04-07T02:57:16.058Z,98879.08
2019-04-07T02:59:46.713Z,98880.95
2019-04-07T03:02:20.882Z,98878.78
2019-04-07T03:04:49.818Z,98878.77
2019-04-07T03:07:21.685Z,98881.41
2019-04-07T03:09:50.426Z,98883.08
2019-04-07T03:12:19.077Z,98882.50
2019-04-07T03:14:54.309Z,98876.30
2019-04-07T03:17:25.764Z,98879.78
2019-04-07T03:20:00.685Z,98876.83
2019-04-07T03:22:32.366Z,98884.31
2019-04-07T03:25:18.930Z,98879.56
2019-04-07T03:27:52.813Z,98879.30
2019-04-07T03:30:24.232Z,98881.77
2019-04-07T03:33:12.887Z,98874.67
2019-04-07T03:35:47.803Z,98880.41
2019-04-07T03:38:15.222Z,98878.46
2019-04-07T03:40:55.599Z,98883.77
2019-04-07T03:43:26.206Z,98873.25
2019-04-07T03:45:55.035Z,98872.69
2019-04-07T03:48:26.391Z,98871.93
2019-04-07T03:54:07.154Z,98878.53
2019-04-07T03:56:52.095Z,98880.67
2019-04-07T03:59:21.579Z,98879.33
2019-04-07T04:01:59.146Z,98882.05
2019-04-07T04:04:27.570Z,98881.47
